Orbital elements of ASTRA 1D
| Launched | 31 October 1994 |
| Flight ended | – |
| Launch site | Europe's Spaceport, Kourou, French Guiana |
| Owner | SES |
| NORAD ID | 23331 |
| Date fetched |
Epoch osculation |
Inc. [°] |
Ecc. | RA asc node [hr] |
Arg Peri. [°] |
Mean anom [°] |
Mean motion [rev/day] |
Abs. mag |
| Date fetched |
Epoch osculation |
Inc. [°] |
Ecc. | RA asc node [hr] |
Arg Peri. [°] |
Mean anom [°] |
Mean motion [rev/day] |
Abs. mag |
| 2026 May 07 17:58 | 2026 May 04 20:17:51 | 12.2308 | 0.00041 | 1.9364 | 105.4670 | 80.5225 | 0.98949 | – |
| 2026 May 06 17:57 | 2026 May 04 20:17:51 | 12.2308 | 0.00041 | 1.9364 | 105.4670 | 80.5225 | 0.98949 | – |
| 2026 May 05 17:57 | 2026 May 04 20:17:51 | 12.2308 | 0.00041 | 1.9364 | 105.4670 | 80.5225 | 0.98949 | – |
| 2026 May 04 17:57 | 2026 Apr 29 05:32:38 | 12.2223 | 0.00039 | 1.9391 | 105.3775 | 80.5225 | 0.98949 | – |
| 2026 May 03 17:57 | 2026 Apr 29 05:32:38 | 12.2223 | 0.00039 | 1.9391 | 105.3775 | 80.5225 | 0.98949 | – |
| 2026 May 02 17:57 | 2026 Apr 29 05:32:38 | 12.2223 | 0.00039 | 1.9391 | 105.3775 | 80.5225 | 0.98949 | – |
| 2026 May 01 17:56 | 2026 Apr 29 05:32:38 | 12.2223 | 0.00039 | 1.9391 | 105.3775 | 80.5225 | 0.98949 | – |
| 2026 Apr 30 17:56 | 2026 Apr 29 05:32:38 | 12.2223 | 0.00039 | 1.9391 | 105.3775 | 80.5225 | 0.98949 | – |
| 2026 Apr 29 17:57 | 2026 Apr 24 04:10:51 | 12.2148 | 0.00037 | 1.9415 | 104.4687 | 80.5225 | 0.98949 | – |
| 2026 Apr 28 17:56 | 2026 Apr 24 04:10:51 | 12.2148 | 0.00037 | 1.9415 | 104.4687 | 80.5225 | 0.98949 | – |
| 2026 Apr 27 17:58 | 2026 Apr 24 04:10:51 | 12.2148 | 0.00037 | 1.9415 | 104.4687 | 80.5225 | 0.98949 | – |
| 2026 Apr 26 17:58 | 2026 Apr 24 04:10:51 | 12.2148 | 0.00037 | 1.9415 | 104.4687 | 80.5225 | 0.98949 | – |
| 2026 Apr 25 17:58 | 2026 Apr 24 04:10:51 | 12.2148 | 0.00037 | 1.9415 | 104.4687 | 80.5225 | 0.98949 | – |
| 2026 Apr 24 17:59 | 2026 Apr 24 04:10:51 | 12.2148 | 0.00037 | 1.9415 | 104.4687 | 80.5225 | 0.98949 | – |
| 2026 Apr 23 17:57 | 2026 Apr 18 16:12:47 | 12.2068 | 0.00034 | 1.9442 | 104.3626 | 80.5225 | 0.98949 | – |
| 2026 Apr 22 17:57 | 2026 Apr 18 16:12:47 | 12.2068 | 0.00034 | 1.9442 | 104.3626 | 80.5225 | 0.98949 | – |
| 2026 Apr 21 17:57 | 2026 Apr 18 16:12:47 | 12.2068 | 0.00034 | 1.9442 | 104.3626 | 80.5225 | 0.98949 | – |
| 2026 Apr 20 17:57 | 2026 Apr 18 16:12:47 | 12.2068 | 0.00034 | 1.9442 | 104.3626 | 80.5225 | 0.98949 | – |
| 2026 Apr 19 17:58 | 2026 Apr 18 16:12:47 | 12.2068 | 0.00034 | 1.9442 | 104.3626 | 80.5225 | 0.98949 | – |
| 2026 Apr 18 17:56 | 2026 Apr 12 14:53:41 | 12.1978 | 0.00031 | 1.9471 | 107.2949 | 80.5225 | 0.98949 | – |
| 2026 Apr 16 17:57 | 2026 Apr 12 14:53:41 | 12.1978 | 0.00031 | 1.9471 | 107.2949 | 80.5225 | 0.98949 | – |
| 2026 Apr 14 17:57 | 2026 Apr 12 14:53:41 | 12.1978 | 0.00031 | 1.9471 | 107.2949 | 80.5225 | 0.98949 | – |
| 2026 Apr 13 17:57 | 2026 Apr 12 14:53:41 | 12.1978 | 0.00031 | 1.9471 | 107.2949 | 80.5225 | 0.98949 | – |
| 2026 Apr 12 17:57 | 2026 Apr 08 13:35:38 | 12.1916 | 0.00029 | 1.9490 | 110.2525 | 80.5225 | 0.98949 | – |
| 2026 Apr 11 17:57 | 2026 Apr 08 13:35:38 | 12.1916 | 0.00029 | 1.9490 | 110.2525 | 80.5225 | 0.98949 | – |
| 2026 Apr 10 17:58 | 2026 Apr 08 13:35:38 | 12.1916 | 0.00029 | 1.9490 | 110.2525 | 80.5225 | 0.98949 | – |